sensor_id;sensor_type;location;lat;lon;timestamp;P1;durP1;ratioP1;P2;durP2;ratioP2
65641;SDS011;52340;-6.720;108.544;2023-07-24T00:00:34;122.70;;;74.53;;
65641;SDS011;52340;-6.720;108.544;2023-07-24T00:01:41;121.88;;;75.07;;
65641;SDS011;52340;-6.720;108.544;2023-07-24T00:02:43;112.72;;;72.03;;
65641;SDS011;52340;-6.720;108.544;2023-07-24T00:03:47;120.40;;;72.55;;
65641;SDS011;52340;-6.720;108.544;2023-07-24T00:04:49;118.50;;;72.45;;
65641;SDS011;52340;-6.720;108.544;2023-07-24T00:05:51;110.97;;;69.32;;
65641;SDS011;52340;-6.720;108.544;2023-07-24T00:06:53;115.65;;;69.25;;
65641;SDS011;52340;-6.720;108.544;2023-07-24T00:07:54;111.63;;;68.78;;
65641;SDS011;52340;-6.720;108.544;2023-07-24T00:08:56;108.57;;;66.55;;
65641;SDS011;52340;-6.720;108.544;2023-07-24T00:09:58;113.53;;;67.32;;
65641;SDS011;52340;-6.720;108.544;2023-07-24T00:10:59;105.30;;;68.78;;
65641;SDS011;52340;-6.720;108.544;2023-07-24T00:12:01;111.93;;;67.18;;
65641;SDS011;52340;-6.720;108.544;2023-07-24T00:13:05;115.53;;;66.90;;
65641;SDS011;52340;-6.720;108.544;2023-07-24T00:14:07;107.53;;;66.07;;
65641;SDS011;52340;-6.720;108.544;2023-07-24T00:15:09;115.10;;;66.63;;
65641;SDS011;52340;-6.720;108.544;2023-07-24T00:16:11;104.93;;;65.57;;
65641;SDS011;52340;-6.720;108.544;2023-07-24T00:17:15;101.18;;;67.90;;
65641;SDS011;52340;-6.720;108.544;2023-07-24T00:18:17;99.55;;;66.45;;
65641;SDS011;52340;-6.720;108.544;2023-07-24T00:19:21;106.20;;;65.90;;
65641;SDS011;52340;-6.720;108.544;2023-07-24T00:20:23;103.70;;;66.28;;
65641;SDS011;52340;-6.720;108.544;2023-07-24T00:21:25;103.13;;;64.88;;
65641;SDS011;52340;-6.720;108.544;2023-07-24T00:22:26;103.55;;;65.68;;
65641;SDS011;52340;-6.720;108.544;2023-07-24T00:23:28;98.50;;;64.10;;
65641;SDS011;52340;-6.720;108.544;2023-07-24T00:24:30;104.82;;;66.18;;
65641;SDS011;52340;-6.720;108.544;2023-07-24T00:25:32;95.32;;;63.10;;
65641;SDS011;52340;-6.720;108.544;2023-07-24T00:26:36;104.85;;;63.83;;
65641;SDS011;52340;-6.720;108.544;2023-07-24T00:27:38;92.97;;;61.83;;
65641;SDS011;52340;-6.720;108.544;2023-07-24T00:28:42;89.47;;;59.58;;
65641;SDS011;52340;-6.720;108.544;2023-07-24T00:29:43;94.25;;;62.03;;
65641;SDS011;52340;-6.720;108.544;2023-07-24T00:30:45;96.93;;;61.92;;
65641;SDS011;52340;-6.720;108.544;2023-07-24T00:31:47;100.57;;;63.25;;
65641;SDS011;52340;-6.720;108.544;2023-07-24T00:32:48;103.55;;;64.65;;
65641;SDS011;52340;-6.720;108.544;2023-07-24T00:33:50;100.80;;;63.95;;
65641;SDS011;52340;-6.720;108.544;2023-07-24T00:34:52;103.68;;;65.22;;
65641;SDS011;52340;-6.720;108.544;2023-07-24T00:35:55;96.88;;;64.25;;
65641;SDS011;52340;-6.720;108.544;2023-07-24T00:36:57;96.97;;;61.67;;
65641;SDS011;52340;-6.720;108.544;2023-07-24T00:37:58;99.10;;;64.30;;
65641;SDS011;52340;-6.720;108.544;2023-07-24T00:39:00;92.70;;;62.40;;
65641;SDS011;52340;-6.720;108.544;2023-07-24T00:40:02;103.45;;;63.90;;
65641;SDS011;52340;-6.720;108.544;2023-07-24T00:41:04;98.45;;;63.88;;
65641;SDS011;52340;-6.720;108.544;2023-07-24T00:42:06;91.88;;;64.03;;
65641;SDS011;52340;-6.720;108.544;2023-07-24T00:43:08;93.90;;;62.10;;
65641;SDS011;52340;-6.720;108.544;2023-07-24T00:44:11;98.95;;;63.05;;
65641;SDS011;52340;-6.720;108.544;2023-07-24T00:45:13;93.15;;;63.00;;
65641;SDS011;52340;-6.720;108.544;2023-07-24T00:46:15;95.53;;;61.38;;
65641;SDS011;52340;-6.720;108.544;2023-07-24T00:47:16;93.32;;;61.17;;
65641;SDS011;52340;-6.720;108.544;2023-07-24T00:48:18;104.05;;;63.40;;
65641;SDS011;52340;-6.720;108.544;2023-07-24T00:49:20;90.95;;;60.65;;
65641;SDS011;52340;-6.720;108.544;2023-07-24T00:50:22;98.13;;;59.55;;
65641;SDS011;52340;-6.720;108.544;2023-07-24T00:51:24;90.60;;;58.90;;
65641;SDS011;52340;-6.720;108.544;2023-07-24T00:52:27;92.85;;;58.90;;
65641;SDS011;52340;-6.720;108.544;2023-07-24T00:53:29;86.60;;;59.25;;
65641;SDS011;52340;-6.720;108.544;2023-07-24T00:54:30;87.90;;;59.00;;
65641;SDS011;52340;-6.720;108.544;2023-07-24T00:55:33;85.75;;;58.50;;
65641;SDS011;52340;-6.720;108.544;2023-07-24T00:56:35;95.60;;;57.80;;
65641;SDS011;52340;-6.720;108.544;2023-07-24T00:57:37;84.55;;;55.28;;
65641;SDS011;52340;-6.720;108.544;2023-07-24T00:58:39;87.85;;;57.33;;
65641;SDS011;52340;-6.720;108.544;2023-07-24T00:59:42;87.07;;;56.95;;
65641;SDS011;52340;-6.720;108.544;2023-07-24T01:00:45;82.93;;;56.03;;
65641;SDS011;52340;-6.720;108.544;2023-07-24T01:01:47;82.32;;;55.53;;
65641;SDS011;52340;-6.720;108.544;2023-07-24T01:02:49;80.53;;;53.17;;
65641;SDS011;52340;-6.720;108.544;2023-07-24T01:03:51;83.20;;;55.03;;
65641;SDS011;52340;-6.720;108.544;2023-07-24T01:04:53;81.50;;;53.83;;
65641;SDS011;52340;-6.720;108.544;2023-07-24T01:05:55;81.30;;;53.75;;
65641;SDS011;52340;-6.720;108.544;2023-07-24T01:06:56;80.22;;;53.17;;
65641;SDS011;52340;-6.720;108.544;2023-07-24T01:07:58;76.25;;;52.05;;
65641;SDS011;52340;-6.720;108.544;2023-07-24T01:09:00;77.30;;;51.83;;
65641;SDS011;52340;-6.720;108.544;2023-07-24T01:10:02;75.70;;;52.45;;
65641;SDS011;52340;-6.720;108.544;2023-07-24T01:11:08;76.05;;;51.00;;
65641;SDS011;52340;-6.720;108.544;2023-07-24T01:12:13;70.72;;;49.85;;
65641;SDS011;52340;-6.720;108.544;2023-07-24T01:13:20;76.70;;;50.47;;
65641;SDS011;52340;-6.720;108.544;2023-07-24T01:14:25;68.78;;;49.25;;
65641;SDS011;52340;-6.720;108.544;2023-07-24T01:15:36;75.22;;;48.92;;
65641;SDS011;52340;-6.720;108.544;2023-07-24T01:17:45;78.32;;;48.88;;
65641;SDS011;52340;-6.720;108.544;2023-07-24T01:18:49;71.97;;;48.40;;
65641;SDS011;52340;-6.720;108.544;2023-07-24T01:19:52;71.70;;;47.10;;
65641;SDS011;52340;-6.720;108.544;2023-07-24T01:20:56;69.68;;;47.97;;
65641;SDS011;52340;-6.720;108.544;2023-07-24T01:22:00;72.10;;;50.78;;
65641;SDS011;52340;-6.720;108.544;2023-07-24T01:23:14;68.95;;;48.80;;
65641;SDS011;52340;-6.720;108.544;2023-07-24T01:24:24;67.35;;;47.78;;
65641;SDS011;52340;-6.720;108.544;2023-07-24T01:25:31;70.13;;;47.90;;
65641;SDS011;52340;-6.720;108.544;2023-07-24T01:26:36;66.03;;;47.25;;
65641;SDS011;52340;-6.720;108.544;2023-07-24T01:27:40;74.93;;;50.70;;
65641;SDS011;52340;-6.720;108.544;2023-07-24T01:28:43;72.68;;;50.58;;
65641;SDS011;52340;-6.720;108.544;2023-07-24T01:29:44;72.00;;;49.60;;
65641;SDS011;52340;-6.720;108.544;2023-07-24T01:30:46;75.93;;;49.83;;
65641;SDS011;52340;-6.720;108.544;2023-07-24T01:31:48;70.45;;;48.90;;
65641;SDS011;52340;-6.720;108.544;2023-07-24T01:32:50;77.72;;;47.40;;
65641;SDS011;52340;-6.720;108.544;2023-07-24T01:33:52;90.25;;;55.03;;
65641;SDS011;52340;-6.720;108.544;2023-07-24T01:34:53;74.13;;;46.17;;
65641;SDS011;52340;-6.720;108.544;2023-07-24T01:35:56;93.63;;;52.58;;
65641;SDS011;52340;-6.720;108.544;2023-07-24T01:37:00;86.10;;;47.88;;
65641;SDS011;52340;-6.720;108.544;2023-07-24T01:38:02;85.88;;;54.13;;
65641;SDS011;52340;-6.720;108.544;2023-07-24T01:39:04;84.47;;;53.63;;
65641;SDS011;52340;-6.720;108.544;2023-07-24T01:40:06;83.70;;;55.05;;
65641;SDS011;52340;-6.720;108.544;2023-07-24T01:41:08;86.00;;;49.50;;
65641;SDS011;52340;-6.720;108.544;2023-07-24T01:42:12;70.93;;;45.88;;
65641;SDS011;52340;-6.720;108.544;2023-07-24T01:43:14;82.55;;;55.17;;
65641;SDS011;52340;-6.720;108.544;2023-07-24T01:44:16;79.88;;;50.90;;
65641;SDS011;52340;-6.720;108.544;2023-07-24T01:45:18;81.15;;;53.22;;
65641;SDS011;52340;-6.720;108.544;2023-07-24T01:46:20;84.20;;;51.17;;
65641;SDS011;52340;-6.720;108.544;2023-07-24T01:47:22;72.75;;;48.15;;
65641;SDS011;52340;-6.720;108.544;2023-07-24T01:48:24;68.45;;;48.70;;
65641;SDS011;52340;-6.720;108.544;2023-07-24T01:49:26;69.93;;;44.85;;
65641;SDS011;52340;-6.720;108.544;2023-07-24T01:50:27;73.43;;;48.30;;
65641;SDS011;52340;-6.720;108.544;2023-07-24T01:51:29;69.78;;;45.58;;
65641;SDS011;52340;-6.720;108.544;2023-07-24T01:52:31;73.90;;;49.15;;
65641;SDS011;52340;-6.720;108.544;2023-07-24T01:53:33;75.30;;;48.92;;
65641;SDS011;52340;-6.720;108.544;2023-07-24T01:54:35;74.57;;;44.95;;
65641;SDS011;52340;-6.720;108.544;2023-07-24T01:55:37;74.22;;;48.15;;
65641;SDS011;52340;-6.720;108.544;2023-07-24T01:56:39;71.03;;;46.58;;
65641;SDS011;52340;-6.720;108.544;2023-07-24T01:57:42;76.45;;;47.97;;
65641;SDS011;52340;-6.720;108.544;2023-07-24T01:58:44;77.47;;;43.47;;
65641;SDS011;52340;-6.720;108.544;2023-07-24T01:59:45;73.90;;;45.10;;
65641;SDS011;52340;-6.720;108.544;2023-07-24T02:00:47;73.63;;;43.92;;
65641;SDS011;52340;-6.720;108.544;2023-07-24T02:01:49;62.55;;;40.60;;
65641;SDS011;52340;-6.720;108.544;2023-07-24T02:02:51;64.05;;;41.13;;
65641;SDS011;52340;-6.720;108.544;2023-07-24T02:03:52;66.10;;;40.22;;
65641;SDS011;52340;-6.720;108.544;2023-07-24T02:04:54;60.83;;;40.05;;
65641;SDS011;52340;-6.720;108.544;2023-07-24T02:05:56;63.33;;;39.75;;
65641;SDS011;52340;-6.720;108.544;2023-07-24T02:06:59;59.75;;;40.08;;
65641;SDS011;52340;-6.720;108.544;2023-07-24T02:08:01;61.72;;;40.88;;
65641;SDS011;52340;-6.720;108.544;2023-07-24T02:09:03;61.83;;;40.63;;
65641;SDS011;52340;-6.720;108.544;2023-07-24T02:10:05;63.25;;;41.53;;
65641;SDS011;52340;-6.720;108.544;2023-07-24T02:11:08;65.40;;;40.90;;
65641;SDS011;52340;-6.720;108.544;2023-07-24T02:12:12;58.75;;;39.83;;
65641;SDS011;52340;-6.720;108.544;2023-07-24T02:13:16;58.60;;;41.50;;
65641;SDS011;52340;-6.720;108.544;2023-07-24T02:14:18;63.83;;;41.75;;
65641;SDS011;52340;-6.720;108.544;2023-07-24T02:15:20;61.88;;;41.45;;
65641;SDS011;52340;-6.720;108.544;2023-07-24T02:16:22;58.58;;;37.97;;
65641;SDS011;52340;-6.720;108.544;2023-07-24T02:17:24;54.05;;;35.53;;
65641;SDS011;52340;-6.720;108.544;2023-07-24T02:18:25;49.10;;;33.95;;
65641;SDS011;52340;-6.720;108.544;2023-07-24T02:19:27;56.10;;;34.08;;
65641;SDS011;52340;-6.720;108.544;2023-07-24T02:20:29;50.95;;;34.22;;
65641;SDS011;52340;-6.720;108.544;2023-07-24T02:21:31;53.88;;;34.53;;
65641;SDS011;52340;-6.720;108.544;2023-07-24T02:22:32;51.90;;;34.88;;
65641;SDS011;52340;-6.720;108.544;2023-07-24T02:23:34;55.97;;;34.55;;
65641;SDS011;52340;-6.720;108.544;2023-07-24T02:24:36;60.60;;;38.50;;
65641;SDS011;52340;-6.720;108.544;2023-07-24T02:25:38;65.00;;;38.20;;
65641;SDS011;52340;-6.720;108.544;2023-07-24T02:26:40;52.85;;;36.15;;
65641;SDS011;52340;-6.720;108.544;2023-07-24T02:27:41;61.10;;;37.90;;
65641;SDS011;52340;-6.720;108.544;2023-07-24T02:28:45;54.60;;;36.72;;
65641;SDS011;52340;-6.720;108.544;2023-07-24T02:29:47;54.88;;;36.60;;
65641;SDS011;52340;-6.720;108.544;2023-07-24T02:30:48;53.55;;;36.65;;
65641;SDS011;52340;-6.720;108.544;2023-07-24T02:31:50;55.35;;;38.15;;
65641;SDS011;52340;-6.720;108.544;2023-07-24T02:32:54;58.30;;;38.55;;
65641;SDS011;52340;-6.720;108.544;2023-07-24T02:33:55;58.40;;;38.58;;
65641;SDS011;52340;-6.720;108.544;2023-07-24T02:34:57;56.22;;;38.13;;
65641;SDS011;52340;-6.720;108.544;2023-07-24T02:36:00;59.35;;;38.15;;
65641;SDS011;52340;-6.720;108.544;2023-07-24T02:37:02;56.97;;;37.47;;
65641;SDS011;52340;-6.720;108.544;2023-07-24T02:38:04;55.67;;;37.85;;
65641;SDS011;52340;-6.720;108.544;2023-07-24T02:39:05;64.38;;;40.38;;
65641;SDS011;52340;-6.720;108.544;2023-07-24T02:40:08;80.45;;;46.90;;
65641;SDS011;52340;-6.720;108.544;2023-07-24T02:41:10;55.80;;;36.95;;
65641;SDS011;52340;-6.720;108.544;2023-07-24T02:42:12;63.13;;;42.03;;
65641;SDS011;52340;-6.720;108.544;2023-07-24T02:43:13;58.88;;;38.15;;
65641;SDS011;52340;-6.720;108.544;2023-07-24T02:44:20;58.30;;;37.53;;
65641;SDS011;52340;-6.720;108.544;2023-07-24T02:45:21;64.03;;;39.72;;
65641;SDS011;52340;-6.720;108.544;2023-07-24T02:46:23;57.25;;;35.83;;
65641;SDS011;52340;-6.720;108.544;2023-07-24T02:47:25;46.92;;;33.08;;
65641;SDS011;52340;-6.720;108.544;2023-07-24T02:48:27;51.78;;;34.72;;
65641;SDS011;52340;-6.720;108.544;2023-07-24T02:49:28;49.25;;;33.30;;
65641;SDS011;52340;-6.720;108.544;2023-07-24T02:50:30;52.58;;;35.10;;
65641;SDS011;52340;-6.720;108.544;2023-07-24T02:51:35;53.88;;;34.80;;
65641;SDS011;52340;-6.720;108.544;2023-07-24T02:52:37;51.13;;;33.22;;
65641;SDS011;52340;-6.720;108.544;2023-07-24T02:53:38;47.38;;;33.65;;
65641;SDS011;52340;-6.720;108.544;2023-07-24T02:54:40;46.40;;;33.58;;
65641;SDS011;52340;-6.720;108.544;2023-07-24T02:55:42;44.53;;;31.00;;
65641;SDS011;52340;-6.720;108.544;2023-07-24T02:56:44;41.95;;;29.05;;
65641;SDS011;52340;-6.720;108.544;2023-07-24T02:57:45;44.50;;;30.35;;
65641;SDS011;52340;-6.720;108.544;2023-07-24T02:58:47;44.50;;;29.88;;
65641;SDS011;52340;-6.720;108.544;2023-07-24T02:59:51;44.65;;;29.63;;
65641;SDS011;52340;-6.720;108.544;2023-07-24T03:00:52;45.03;;;31.13;;
65641;SDS011;52340;-6.720;108.544;2023-07-24T03:01:54;46.90;;;31.50;;
65641;SDS011;52340;-6.720;108.544;2023-07-24T03:02:56;44.33;;;30.42;;
65641;SDS011;52340;-6.720;108.544;2023-07-24T03:03:58;43.88;;;31.20;;
65641;SDS011;52340;-6.720;108.544;2023-07-24T03:05:00;120.13;;;58.65;;
65641;SDS011;52340;-6.720;108.544;2023-07-24T03:06:01;69.93;;;41.33;;
65641;SDS011;52340;-6.720;108.544;2023-07-24T03:07:03;84.00;;;45.05;;
65641;SDS011;52340;-6.720;108.544;2023-07-24T03:08:05;104.63;;;55.75;;
65641;SDS011;52340;-6.720;108.544;2023-07-24T03:09:07;76.10;;;44.83;;
65641;SDS011;52340;-6.720;108.544;2023-07-24T03:10:09;122.00;;;69.50;;
65641;SDS011;52340;-6.720;108.544;2023-07-24T03:11:13;217.85;;;125.75;;
65641;SDS011;52340;-6.720;108.544;2023-07-24T03:12:17;97.72;;;60.25;;
65641;SDS011;52340;-6.720;108.544;2023-07-24T03:13:19;82.18;;;53.85;;
65641;SDS011;52340;-6.720;108.544;2023-07-24T03:14:20;66.32;;;43.33;;
65641;SDS011;52340;-6.720;108.544;2023-07-24T03:15:24;76.28;;;48.58;;
65641;SDS011;52340;-6.720;108.544;2023-07-24T03:16:26;127.20;;;78.47;;
65641;SDS011;52340;-6.720;108.544;2023-07-24T03:17:30;109.85;;;70.57;;
65641;SDS011;52340;-6.720;108.544;2023-07-24T03:18:31;86.30;;;55.00;;
65641;SDS011;52340;-6.720;108.544;2023-07-24T03:19:33;80.18;;;51.65;;
65641;SDS011;52340;-6.720;108.544;2023-07-24T03:20:35;67.18;;;46.15;;
65641;SDS011;52340;-6.720;108.544;2023-07-24T03:21:36;65.10;;;42.13;;
65641;SDS011;52340;-6.720;108.544;2023-07-24T03:22:38;62.72;;;42.03;;
65641;SDS011;52340;-6.720;108.544;2023-07-24T03:23:41;59.35;;;40.00;;
65641;SDS011;52340;-6.720;108.544;2023-07-24T03:24:43;56.60;;;38.70;;
65641;SDS011;52340;-6.720;108.544;2023-07-24T03:25:45;52.88;;;36.38;;
65641;SDS011;52340;-6.720;108.544;2023-07-24T03:26:47;50.13;;;35.60;;
65641;SDS011;52340;-6.720;108.544;2023-07-24T03:27:48;54.08;;;35.85;;
65641;SDS011;52340;-6.720;108.544;2023-07-24T03:28:50;54.05;;;36.08;;
65641;SDS011;52340;-6.720;108.544;2023-07-24T03:29:52;56.47;;;36.63;;
65641;SDS011;52340;-6.720;108.544;2023-07-24T03:30:55;58.45;;;36.00;;
65641;SDS011;52340;-6.720;108.544;2023-07-24T03:31:57;55.10;;;38.42;;
65641;SDS011;52340;-6.720;108.544;2023-07-24T03:32:59;53.30;;;37.45;;
65641;SDS011;52340;-6.720;108.544;2023-07-24T03:34:00;53.10;;;34.78;;
65641;SDS011;52340;-6.720;108.544;2023-07-24T03:35:02;48.97;;;35.53;;
65641;SDS011;52340;-6.720;108.544;2023-07-24T03:36:05;52.47;;;34.90;;
65641;SDS011;52340;-6.720;108.544;2023-07-24T03:37:06;50.05;;;31.98;;
65641;SDS011;52340;-6.720;108.544;2023-07-24T03:38:08;49.85;;;33.97;;
65641;SDS011;52340;-6.720;108.544;2023-07-24T03:39:10;49.42;;;34.35;;
65641;SDS011;52340;-6.720;108.544;2023-07-24T03:40:12;52.03;;;35.25;;
65641;SDS011;52340;-6.720;108.544;2023-07-24T03:41:14;49.05;;;35.22;;
65641;SDS011;52340;-6.720;108.544;2023-07-24T03:42:24;49.10;;;34.78;;
65641;SDS011;52340;-6.720;108.544;2023-07-24T03:43:26;48.17;;;33.88;;
65641;SDS011;52340;-6.720;108.544;2023-07-24T03:44:28;47.13;;;32.85;;
65641;SDS011;52340;-6.720;108.544;2023-07-24T03:45:30;45.80;;;32.58;;
65641;SDS011;52340;-6.720;108.544;2023-07-24T03:46:34;48.10;;;31.25;;
65641;SDS011;52340;-6.720;108.544;2023-07-24T03:47:35;46.25;;;31.90;;
65641;SDS011;52340;-6.720;108.544;2023-07-24T03:48:37;50.03;;;33.20;;
65641;SDS011;52340;-6.720;108.544;2023-07-24T03:49:39;43.22;;;30.98;;
65641;SDS011;52340;-6.720;108.544;2023-07-24T03:50:40;45.42;;;31.77;;
65641;SDS011;52340;-6.720;108.544;2023-07-24T03:51:45;46.20;;;31.27;;
65641;SDS011;52340;-6.720;108.544;2023-07-24T03:52:47;48.38;;;32.25;;
65641;SDS011;52340;-6.720;108.544;2023-07-24T03:53:48;46.13;;;31.60;;
65641;SDS011;52340;-6.720;108.544;2023-07-24T03:54:51;43.00;;;30.85;;
65641;SDS011;52340;-6.720;108.544;2023-07-24T03:55:52;49.13;;;31.85;;
65641;SDS011;52340;-6.720;108.544;2023-07-24T03:56:54;41.88;;;30.80;;
65641;SDS011;52340;-6.720;108.544;2023-07-24T03:57:56;44.17;;;31.20;;
65641;SDS011;52340;-6.720;108.544;2023-07-24T03:58:58;45.47;;;30.75;;
65641;SDS011;52340;-6.720;108.544;2023-07-24T03:59:59;46.10;;;30.40;;
65641;SDS011;52340;-6.720;108.544;2023-07-24T04:01:01;41.95;;;30.13;;
65641;SDS011;52340;-6.720;108.544;2023-07-24T04:02:05;45.13;;;29.55;;
65641;SDS011;52340;-6.720;108.544;2023-07-24T04:03:06;44.45;;;30.15;;
65641;SDS011;52340;-6.720;108.544;2023-07-24T04:04:09;43.33;;;29.33;;
65641;SDS011;52340;-6.720;108.544;2023-07-24T04:05:11;43.75;;;28.33;;
65641;SDS011;52340;-6.720;108.544;2023-07-24T04:06:12;42.38;;;29.05;;
65641;SDS011;52340;-6.720;108.544;2023-07-24T04:07:14;37.97;;;27.38;;
65641;SDS011;52340;-6.720;108.544;2023-07-24T04:08:19;45.35;;;28.92;;
65641;SDS011;52340;-6.720;108.544;2023-07-24T04:09:20;42.53;;;27.85;;
65641;SDS011;52340;-6.720;108.544;2023-07-24T04:10:22;46.33;;;29.80;;
65641;SDS011;52340;-6.720;108.544;2023-07-24T04:11:24;44.15;;;29.30;;
65641;SDS011;52340;-6.720;108.544;2023-07-24T04:12:26;41.10;;;28.90;;
65641;SDS011;52340;-6.720;108.544;2023-07-24T04:13:29;39.25;;;28.20;;
65641;SDS011;52340;-6.720;108.544;2023-07-24T04:14:30;39.28;;;27.50;;
65641;SDS011;52340;-6.720;108.544;2023-07-24T04:15:35;41.20;;;28.35;;
65641;SDS011;52340;-6.720;108.544;2023-07-24T04:16:37;41.85;;;27.83;;
65641;SDS011;52340;-6.720;108.544;2023-07-24T04:17:40;41.05;;;27.77;;
65641;SDS011;52340;-6.720;108.544;2023-07-24T04:18:42;41.45;;;28.05;;
65641;SDS011;52340;-6.720;108.544;2023-07-24T04:19:44;39.63;;;27.30;;
65641;SDS011;52340;-6.720;108.544;2023-07-24T04:20:45;39.80;;;26.85;;
65641;SDS011;52340;-6.720;108.544;2023-07-24T04:21:47;38.95;;;25.67;;
65641;SDS011;52340;-6.720;108.544;2023-07-24T04:22:49;38.90;;;25.80;;
65641;SDS011;52340;-6.720;108.544;2023-07-24T04:23:51;40.80;;;27.48;;
65641;SDS011;52340;-6.720;108.544;2023-07-24T04:24:52;40.63;;;27.25;;
65641;SDS011;52340;-6.720;108.544;2023-07-24T04:25:56;39.40;;;26.13;;
65641;SDS011;52340;-6.720;108.544;2023-07-24T04:27:01;41.42;;;27.65;;
65641;SDS011;52340;-6.720;108.544;2023-07-24T04:28:03;38.83;;;26.90;;
65641;SDS011;52340;-6.720;108.544;2023-07-24T04:29:07;39.35;;;26.85;;
65641;SDS011;52340;-6.720;108.544;2023-07-24T04:30:12;39.15;;;25.80;;
65641;SDS011;52340;-6.720;108.544;2023-07-24T04:31:14;36.72;;;25.70;;
65641;SDS011;52340;-6.720;108.544;2023-07-24T04:32:15;36.95;;;26.17;;
65641;SDS011;52340;-6.720;108.544;2023-07-24T04:33:19;40.58;;;26.35;;
65641;SDS011;52340;-6.720;108.544;2023-07-24T04:34:21;40.95;;;26.98;;
65641;SDS011;52340;-6.720;108.544;2023-07-24T04:35:22;35.70;;;26.25;;
65641;SDS011;52340;-6.720;108.544;2023-07-24T04:36:24;41.15;;;26.63;;
65641;SDS011;52340;-6.720;108.544;2023-07-24T04:37:26;41.35;;;26.02;;
65641;SDS011;52340;-6.720;108.544;2023-07-24T04:38:28;37.78;;;25.73;;
65641;SDS011;52340;-6.720;108.544;2023-07-24T04:39:30;37.70;;;26.00;;
65641;SDS011;52340;-6.720;108.544;2023-07-24T04:40:32;37.90;;;26.13;;
65641;SDS011;52340;-6.720;108.544;2023-07-24T04:41:33;41.00;;;26.80;;
65641;SDS011;52340;-6.720;108.544;2023-07-24T04:42:35;30.83;;;22.67;;
65641;SDS011;52340;-6.720;108.544;2023-07-24T04:43:37;42.88;;;27.65;;
65641;SDS011;52340;-6.720;108.544;2023-07-24T04:44:41;37.60;;;25.88;;
65641;SDS011;52340;-6.720;108.544;2023-07-24T04:45:43;36.80;;;26.20;;
65641;SDS011;52340;-6.720;108.544;2023-07-24T04:46:44;43.08;;;27.90;;
65641;SDS011;52340;-6.720;108.544;2023-07-24T04:47:49;39.17;;;26.63;;
65641;SDS011;52340;-6.720;108.544;2023-07-24T04:48:52;43.58;;;27.15;;
65641;SDS011;52340;-6.720;108.544;2023-07-24T04:49:54;42.03;;;27.02;;
65641;SDS011;52340;-6.720;108.544;2023-07-24T04:50:55;43.60;;;27.67;;
65641;SDS011;52340;-6.720;108.544;2023-07-24T04:51:57;44.50;;;27.42;;
65641;SDS011;52340;-6.720;108.544;2023-07-24T04:52:59;38.72;;;26.65;;
65641;SDS011;52340;-6.720;108.544;2023-07-24T04:54:01;44.47;;;26.67;;
65641;SDS011;52340;-6.720;108.544;2023-07-24T04:55:03;37.97;;;26.55;;
65641;SDS011;52340;-6.720;108.544;2023-07-24T04:56:05;38.53;;;26.48;;
65641;SDS011;52340;-6.720;108.544;2023-07-24T04:57:09;38.58;;;24.40;;
65641;SDS011;52340;-6.720;108.544;2023-07-24T04:58:11;38.33;;;26.83;;
65641;SDS011;52340;-6.720;108.544;2023-07-24T04:59:13;40.72;;;26.45;;
65641;SDS011;52340;-6.720;108.544;2023-07-24T05:00:15;38.50;;;25.58;;
65641;SDS011;52340;-6.720;108.544;2023-07-24T05:01:17;41.25;;;25.77;;
65641;SDS011;52340;-6.720;108.544;2023-07-24T05:02:18;37.92;;;25.77;;
65641;SDS011;52340;-6.720;108.544;2023-07-24T05:03:20;35.47;;;24.73;;
65641;SDS011;52340;-6.720;108.544;2023-07-24T05:04:24;36.33;;;25.42;;
65641;SDS011;52340;-6.720;108.544;2023-07-24T05:05:25;36.22;;;24.58;;
65641;SDS011;52340;-6.720;108.544;2023-07-24T05:06:27;33.22;;;24.08;;
65641;SDS011;52340;-6.720;108.544;2023-07-24T05:07:29;34.15;;;23.63;;
65641;SDS011;52340;-6.720;108.544;2023-07-24T05:08:31;34.45;;;23.33;;
65641;SDS011;52340;-6.720;108.544;2023-07-24T05:09:32;36.55;;;24.38;;
65641;SDS011;52340;-6.720;108.544;2023-07-24T05:10:34;35.40;;;23.90;;
65641;SDS011;52340;-6.720;108.544;2023-07-24T05:11:36;37.08;;;23.38;;
65641;SDS011;52340;-6.720;108.544;2023-07-24T05:12:40;35.08;;;23.92;;
65641;SDS011;52340;-6.720;108.544;2023-07-24T05:13:42;37.35;;;24.50;;
65641;SDS011;52340;-6.720;108.544;2023-07-24T05:14:43;35.50;;;23.50;;
65641;SDS011;52340;-6.720;108.544;2023-07-24T05:15:45;35.83;;;24.10;;
65641;SDS011;52340;-6.720;108.544;2023-07-24T05:16:47;32.38;;;22.58;;
65641;SDS011;52340;-6.720;108.544;2023-07-24T05:17:51;34.20;;;23.45;;
65641;SDS011;52340;-6.720;108.544;2023-07-24T05:18:55;31.83;;;23.38;;
65641;SDS011;52340;-6.720;108.544;2023-07-24T05:19:58;34.25;;;22.48;;
65641;SDS011;52340;-6.720;108.544;2023-07-24T05:21:00;30.40;;;22.27;;
65641;SDS011;52340;-6.720;108.544;2023-07-24T05:22:02;34.33;;;23.85;;
65641;SDS011;52340;-6.720;108.544;2023-07-24T05:23:04;35.42;;;22.20;;
65641;SDS011;52340;-6.720;108.544;2023-07-24T05:24:05;36.95;;;23.35;;
65641;SDS011;52340;-6.720;108.544;2023-07-24T05:25:07;34.15;;;22.90;;
65641;SDS011;52340;-6.720;108.544;2023-07-24T05:26:09;33.85;;;22.23;;
65641;SDS011;52340;-6.720;108.544;2023-07-24T05:27:11;31.02;;;22.27;;
65641;SDS011;52340;-6.720;108.544;2023-07-24T05:28:15;33.60;;;22.70;;
65641;SDS011;52340;-6.720;108.544;2023-07-24T05:29:17;31.80;;;22.10;;
65641;SDS011;52340;-6.720;108.544;2023-07-24T05:30:18;32.10;;;21.95;;
65641;SDS011;52340;-6.720;108.544;2023-07-24T05:31:20;31.35;;;22.17;;
65641;SDS011;52340;-6.720;108.544;2023-07-24T05:32:22;33.50;;;21.70;;
65641;SDS011;52340;-6.720;108.544;2023-07-24T05:33:24;31.88;;;21.95;;
65641;SDS011;52340;-6.720;108.544;2023-07-24T05:34:28;31.33;;;22.23;;
65641;SDS011;52340;-6.720;108.544;2023-07-24T05:35:32;31.63;;;22.35;;
65641;SDS011;52340;-6.720;108.544;2023-07-24T05:36:34;29.40;;;21.52;;
65641;SDS011;52340;-6.720;108.544;2023-07-24T05:37:36;33.03;;;22.83;;
65641;SDS011;52340;-6.720;108.544;2023-07-24T05:38:40;30.98;;;22.17;;
65641;SDS011;52340;-6.720;108.544;2023-07-24T05:39:41;31.95;;;21.85;;
65641;SDS011;52340;-6.720;108.544;2023-07-24T05:40:43;31.42;;;22.65;;
65641;SDS011;52340;-6.720;108.544;2023-07-24T05:41:45;32.90;;;21.67;;
65641;SDS011;52340;-6.720;108.544;2023-07-24T05:42:48;32.40;;;22.38;;
65641;SDS011;52340;-6.720;108.544;2023-07-24T05:43:50;37.95;;;23.58;;
65641;SDS011;52340;-6.720;108.544;2023-07-24T05:44:51;34.05;;;22.27;;
65641;SDS011;52340;-6.720;108.544;2023-07-24T05:45:53;35.53;;;22.73;;
65641;SDS011;52340;-6.720;108.544;2023-07-24T05:46:56;32.38;;;22.80;;
65641;SDS011;52340;-6.720;108.544;2023-07-24T05:48:00;31.83;;;22.30;;
65641;SDS011;52340;-6.720;108.544;2023-07-24T05:49:02;29.55;;;21.15;;
65641;SDS011;52340;-6.720;108.544;2023-07-24T05:50:04;32.00;;;22.38;;
65641;SDS011;52340;-6.720;108.544;2023-07-24T05:51:08;27.35;;;21.13;;
65641;SDS011;52340;-6.720;108.544;2023-07-24T05:52:10;31.02;;;21.92;;
65641;SDS011;52340;-6.720;108.544;2023-07-24T05:53:11;28.10;;;20.98;;
65641;SDS011;52340;-6.720;108.544;2023-07-24T05:54:13;30.10;;;21.55;;
65641;SDS011;52340;-6.720;108.544;2023-07-24T05:55:15;34.20;;;22.02;;